sensor_id;sensor_type;location;lat;lon;timestamp;P1;durP1;ratioP1;P2;durP2;ratioP2
22030;SDS011;11179;52.106;21.024;2023-05-07T00:01:14;13.60;;;4.73;;
22030;SDS011;11179;52.106;21.024;2023-05-07T00:03:40;12.70;;;4.27;;
22030;SDS011;11179;52.106;21.024;2023-05-07T00:06:05;9.97;;;4.47;;
22030;SDS011;11179;52.106;21.024;2023-05-07T00:08:31;16.40;;;4.10;;
22030;SDS011;11179;52.106;21.024;2023-05-07T00:10:56;8.00;;;4.23;;
22030;SDS011;11179;52.106;21.024;2023-05-07T00:13:22;11.17;;;4.40;;
22030;SDS011;11179;52.106;21.024;2023-05-07T00:15:47;6.87;;;3.87;;
22030;SDS011;11179;52.106;21.024;2023-05-07T00:18:12;9.93;;;3.90;;
22030;SDS011;11179;52.106;21.024;2023-05-07T00:20:38;6.67;;;3.70;;
22030;SDS011;11179;52.106;21.024;2023-05-07T00:23:03;8.00;;;3.70;;
22030;SDS011;11179;52.106;21.024;2023-05-07T00:25:28;8.70;;;3.43;;
22030;SDS011;11179;52.106;21.024;2023-05-07T00:27:54;8.00;;;4.20;;
22030;SDS011;11179;52.106;21.024;2023-05-07T00:30:19;9.10;;;3.90;;
22030;SDS011;11179;52.106;21.024;2023-05-07T00:32:45;6.97;;;3.73;;
22030;SDS011;11179;52.106;21.024;2023-05-07T00:35:10;11.83;;;3.90;;
22030;SDS011;11179;52.106;21.024;2023-05-07T00:37:36;9.57;;;4.37;;
22030;SDS011;11179;52.106;21.024;2023-05-07T00:40:01;8.00;;;4.77;;
22030;SDS011;11179;52.106;21.024;2023-05-07T00:42:29;7.40;;;3.63;;
22030;SDS011;11179;52.106;21.024;2023-05-07T00:44:57;7.87;;;4.10;;
22030;SDS011;11179;52.106;21.024;2023-05-07T00:47:22;11.17;;;4.30;;
22030;SDS011;11179;52.106;21.024;2023-05-07T00:49:48;6.57;;;3.50;;
22030;SDS011;11179;52.106;21.024;2023-05-07T00:52:15;10.30;;;4.83;;
22030;SDS011;11179;52.106;21.024;2023-05-07T00:54:41;8.27;;;4.33;;
22030;SDS011;11179;52.106;21.024;2023-05-07T00:57:08;10.93;;;4.63;;
22030;SDS011;11179;52.106;21.024;2023-05-07T00:59:36;12.07;;;4.60;;
22030;SDS011;11179;52.106;21.024;2023-05-07T01:02:02;7.80;;;4.07;;
22030;SDS011;11179;52.106;21.024;2023-05-07T01:04:28;9.20;;;4.03;;
22030;SDS011;11179;52.106;21.024;2023-05-07T01:06:54;9.00;;;4.00;;
22030;SDS011;11179;52.106;21.024;2023-05-07T01:09:21;8.07;;;4.20;;
22030;SDS011;11179;52.106;21.024;2023-05-07T01:11:48;9.17;;;4.47;;
22030;SDS011;11179;52.106;21.024;2023-05-07T01:14:15;7.40;;;4.13;;
22030;SDS011;11179;52.106;21.024;2023-05-07T01:16:41;7.40;;;4.13;;
22030;SDS011;11179;52.106;21.024;2023-05-07T01:19:07;8.77;;;4.73;;
22030;SDS011;11179;52.106;21.024;2023-05-07T01:21:35;7.87;;;3.90;;
22030;SDS011;11179;52.106;21.024;2023-05-07T01:24:02;7.57;;;4.27;;
22030;SDS011;11179;52.106;21.024;2023-05-07T01:26:29;8.27;;;3.97;;
22030;SDS011;11179;52.106;21.024;2023-05-07T01:28:55;7.83;;;4.33;;
22030;SDS011;11179;52.106;21.024;2023-05-07T01:31:20;9.63;;;4.10;;
22030;SDS011;11179;52.106;21.024;2023-05-07T01:33:48;9.37;;;4.47;;
22030;SDS011;11179;52.106;21.024;2023-05-07T01:36:17;7.97;;;3.80;;
22030;SDS011;11179;52.106;21.024;2023-05-07T01:38:43;7.27;;;3.77;;
22030;SDS011;11179;52.106;21.024;2023-05-07T01:41:11;7.43;;;3.53;;
22030;SDS011;11179;52.106;21.024;2023-05-07T01:43:37;8.93;;;4.03;;
22030;SDS011;11179;52.106;21.024;2023-05-07T01:46:04;7.13;;;3.20;;
22030;SDS011;11179;52.106;21.024;2023-05-07T01:48:31;9.53;;;3.67;;
22030;SDS011;11179;52.106;21.024;2023-05-07T01:50:57;15.10;;;3.70;;
22030;SDS011;11179;52.106;21.024;2023-05-07T01:53:23;7.33;;;3.63;;
22030;SDS011;11179;52.106;21.024;2023-05-07T01:55:48;6.40;;;3.57;;
22030;SDS011;11179;52.106;21.024;2023-05-07T01:58:14;7.97;;;3.60;;
22030;SDS011;11179;52.106;21.024;2023-05-07T02:00:39;7.80;;;3.03;;
22030;SDS011;11179;52.106;21.024;2023-05-07T02:03:05;7.27;;;3.20;;
22030;SDS011;11179;52.106;21.024;2023-05-07T02:05:31;6.70;;;3.00;;
22030;SDS011;11179;52.106;21.024;2023-05-07T02:07:56;9.53;;;4.33;;
22030;SDS011;11179;52.106;21.024;2023-05-07T02:10:21;8.00;;;3.30;;
22030;SDS011;11179;52.106;21.024;2023-05-07T02:12:47;6.87;;;4.40;;
22030;SDS011;11179;52.106;21.024;2023-05-07T02:15:12;7.37;;;3.93;;
22030;SDS011;11179;52.106;21.024;2023-05-07T02:20:29;18.43;;;4.43;;
22030;SDS011;11179;52.106;21.024;2023-05-07T02:22:54;8.33;;;4.40;;
22030;SDS011;11179;52.106;21.024;2023-05-07T02:25:19;8.60;;;4.10;;
22030;SDS011;11179;52.106;21.024;2023-05-07T02:27:45;8.93;;;4.80;;
22030;SDS011;11179;52.106;21.024;2023-05-07T02:30:10;7.07;;;3.63;;
22030;SDS011;11179;52.106;21.024;2023-05-07T02:32:36;6.07;;;3.43;;
22030;SDS011;11179;52.106;21.024;2023-05-07T02:35:01;6.80;;;3.53;;
22030;SDS011;11179;52.106;21.024;2023-05-07T02:37:26;6.53;;;3.20;;
22030;SDS011;11179;52.106;21.024;2023-05-07T02:39:52;8.60;;;3.73;;
22030;SDS011;11179;52.106;21.024;2023-05-07T02:42:17;8.03;;;3.53;;
22030;SDS011;11179;52.106;21.024;2023-05-07T02:44:42;8.30;;;3.63;;
22030;SDS011;11179;52.106;21.024;2023-05-07T02:47:08;7.57;;;4.00;;
22030;SDS011;11179;52.106;21.024;2023-05-07T02:49:34;6.77;;;3.70;;
22030;SDS011;11179;52.106;21.024;2023-05-07T02:52:00;9.13;;;4.10;;
22030;SDS011;11179;52.106;21.024;2023-05-07T02:54:25;8.47;;;3.67;;
22030;SDS011;11179;52.106;21.024;2023-05-07T02:56:50;8.63;;;4.20;;
22030;SDS011;11179;52.106;21.024;2023-05-07T02:59:16;7.80;;;3.80;;
22030;SDS011;11179;52.106;21.024;2023-05-07T03:01:41;6.53;;;3.70;;
22030;SDS011;11179;52.106;21.024;2023-05-07T03:04:10;7.23;;;3.40;;
22030;SDS011;11179;52.106;21.024;2023-05-07T03:06:35;6.73;;;3.60;;
22030;SDS011;11179;52.106;21.024;2023-05-07T03:09:01;6.47;;;3.40;;
22030;SDS011;11179;52.106;21.024;2023-05-07T03:11:26;5.70;;;3.43;;
22030;SDS011;11179;52.106;21.024;2023-05-07T03:13:51;7.70;;;4.00;;
22030;SDS011;11179;52.106;21.024;2023-05-07T03:16:17;9.23;;;3.33;;
22030;SDS011;11179;52.106;21.024;2023-05-07T03:18:42;6.53;;;3.30;;
22030;SDS011;11179;52.106;21.024;2023-05-07T03:21:07;6.40;;;3.67;;
22030;SDS011;11179;52.106;21.024;2023-05-07T03:23:33;6.43;;;3.53;;
22030;SDS011;11179;52.106;21.024;2023-05-07T03:25:58;5.90;;;3.07;;
22030;SDS011;11179;52.106;21.024;2023-05-07T03:28:23;6.83;;;3.23;;
22030;SDS011;11179;52.106;21.024;2023-05-07T03:30:49;6.77;;;3.23;;
22030;SDS011;11179;52.106;21.024;2023-05-07T03:33:14;8.63;;;3.40;;
22030;SDS011;11179;52.106;21.024;2023-05-07T03:35:40;6.30;;;3.13;;
22030;SDS011;11179;52.106;21.024;2023-05-07T03:38:05;5.73;;;2.43;;
22030;SDS011;11179;52.106;21.024;2023-05-07T03:40:31;6.33;;;2.67;;
22030;SDS011;11179;52.106;21.024;2023-05-07T03:42:56;4.30;;;2.30;;
22030;SDS011;11179;52.106;21.024;2023-05-07T03:45:21;7.37;;;3.23;;
22030;SDS011;11179;52.106;21.024;2023-05-07T03:47:47;6.43;;;3.33;;
22030;SDS011;11179;52.106;21.024;2023-05-07T03:50:12;5.93;;;3.20;;
22030;SDS011;11179;52.106;21.024;2023-05-07T03:52:37;5.67;;;3.03;;
22030;SDS011;11179;52.106;21.024;2023-05-07T03:55:03;6.87;;;2.97;;
22030;SDS011;11179;52.106;21.024;2023-05-07T03:57:28;6.67;;;3.10;;
22030;SDS011;11179;52.106;21.024;2023-05-07T03:59:54;5.63;;;2.93;;
22030;SDS011;11179;52.106;21.024;2023-05-07T04:02:19;6.97;;;3.10;;
22030;SDS011;11179;52.106;21.024;2023-05-07T04:04:47;7.50;;;4.10;;
22030;SDS011;11179;52.106;21.024;2023-05-07T04:07:16;6.50;;;3.10;;
22030;SDS011;11179;52.106;21.024;2023-05-07T04:09:42;4.30;;;2.47;;
22030;SDS011;11179;52.106;21.024;2023-05-07T04:12:07;6.83;;;3.50;;
22030;SDS011;11179;52.106;21.024;2023-05-07T04:14:32;6.10;;;2.67;;
22030;SDS011;11179;52.106;21.024;2023-05-07T04:16:58;4.67;;;2.53;;
22030;SDS011;11179;52.106;21.024;2023-05-07T04:19:24;9.97;;;2.70;;
22030;SDS011;11179;52.106;21.024;2023-05-07T04:21:50;6.30;;;2.80;;
22030;SDS011;11179;52.106;21.024;2023-05-07T04:24:17;7.90;;;2.43;;
22030;SDS011;11179;52.106;21.024;2023-05-07T04:26:45;6.13;;;2.40;;
22030;SDS011;11179;52.106;21.024;2023-05-07T04:29:11;6.00;;;2.80;;
22030;SDS011;11179;52.106;21.024;2023-05-07T04:31:36;5.27;;;2.37;;
22030;SDS011;11179;52.106;21.024;2023-05-07T04:34:01;6.17;;;2.90;;
22030;SDS011;11179;52.106;21.024;2023-05-07T04:39:23;8.73;;;2.87;;
22030;SDS011;11179;52.106;21.024;2023-05-07T04:41:59;6.50;;;3.27;;
22030;SDS011;11179;52.106;21.024;2023-05-07T04:44:25;7.40;;;3.07;;
22030;SDS011;11179;52.106;21.024;2023-05-07T04:46:53;5.10;;;2.70;;
22030;SDS011;11179;52.106;21.024;2023-05-07T04:49:21;7.07;;;2.70;;
22030;SDS011;11179;52.106;21.024;2023-05-07T04:52:10;6.03;;;2.87;;
22030;SDS011;11179;52.106;21.024;2023-05-07T04:54:53;4.70;;;2.87;;
22030;SDS011;11179;52.106;21.024;2023-05-07T04:57:39;7.27;;;2.90;;
22030;SDS011;11179;52.106;21.024;2023-05-07T05:00:41;6.70;;;2.60;;
22030;SDS011;11179;52.106;21.024;2023-05-07T05:03:25;5.70;;;3.00;;
22030;SDS011;11179;52.106;21.024;2023-05-07T05:05:55;5.30;;;2.60;;
22030;SDS011;11179;52.106;21.024;2023-05-07T05:08:20;6.20;;;3.20;;
22030;SDS011;11179;52.106;21.024;2023-05-07T05:10:48;5.90;;;3.30;;
22030;SDS011;11179;52.106;21.024;2023-05-07T05:16:18;6.23;;;2.83;;
22030;SDS011;11179;52.106;21.024;2023-05-07T05:19:02;6.03;;;2.93;;
22030;SDS011;11179;52.106;21.024;2023-05-07T05:21:27;5.73;;;2.70;;
22030;SDS011;11179;52.106;21.024;2023-05-07T05:23:53;5.53;;;3.00;;
22030;SDS011;11179;52.106;21.024;2023-05-07T05:26:19;5.60;;;2.50;;
22030;SDS011;11179;52.106;21.024;2023-05-07T05:28:46;5.60;;;2.80;;
22030;SDS011;11179;52.106;21.024;2023-05-07T05:31:11;8.40;;;3.10;;
22030;SDS011;11179;52.106;21.024;2023-05-07T05:33:36;8.87;;;3.63;;
22030;SDS011;11179;52.106;21.024;2023-05-07T05:36:02;4.93;;;2.80;;
22030;SDS011;11179;52.106;21.024;2023-05-07T05:38:27;5.83;;;2.97;;
22030;SDS011;11179;52.106;21.024;2023-05-07T05:40:53;6.13;;;2.60;;
22030;SDS011;11179;52.106;21.024;2023-05-07T05:43:18;7.37;;;2.87;;
22030;SDS011;11179;52.106;21.024;2023-05-07T05:45:43;5.53;;;3.20;;
22030;SDS011;11179;52.106;21.024;2023-05-07T05:48:09;5.77;;;2.50;;
22030;SDS011;11179;52.106;21.024;2023-05-07T05:50:34;5.57;;;2.70;;
22030;SDS011;11179;52.106;21.024;2023-05-07T05:53:02;5.90;;;2.50;;
22030;SDS011;11179;52.106;21.024;2023-05-07T05:55:28;7.23;;;3.03;;
22030;SDS011;11179;52.106;21.024;2023-05-07T05:57:53;8.13;;;2.90;;
22030;SDS011;11179;52.106;21.024;2023-05-07T06:00:19;7.23;;;2.70;;
22030;SDS011;11179;52.106;21.024;2023-05-07T06:02:47;4.87;;;2.50;;
22030;SDS011;11179;52.106;21.024;2023-05-07T06:05:12;5.07;;;2.43;;
22030;SDS011;11179;52.106;21.024;2023-05-07T06:07:38;6.30;;;2.70;;
22030;SDS011;11179;52.106;21.024;2023-05-07T06:10:03;5.90;;;3.33;;
22030;SDS011;11179;52.106;21.024;2023-05-07T06:12:29;6.13;;;2.60;;
22030;SDS011;11179;52.106;21.024;2023-05-07T06:14:54;6.23;;;2.50;;
22030;SDS011;11179;52.106;21.024;2023-05-07T06:17:20;5.90;;;2.80;;
22030;SDS011;11179;52.106;21.024;2023-05-07T06:19:45;6.30;;;2.57;;
22030;SDS011;11179;52.106;21.024;2023-05-07T06:22:10;9.20;;;2.13;;
22030;SDS011;11179;52.106;21.024;2023-05-07T06:24:36;4.30;;;2.13;;
22030;SDS011;11179;52.106;21.024;2023-05-07T06:27:08;4.00;;;1.50;;
22030;SDS011;11179;52.106;21.024;2023-05-07T06:29:34;5.80;;;2.73;;
22030;SDS011;11179;52.106;21.024;2023-05-07T06:32:12;5.50;;;2.37;;
22030;SDS011;11179;52.106;21.024;2023-05-07T06:34:38;6.27;;;2.00;;
22030;SDS011;11179;52.106;21.024;2023-05-07T06:37:04;4.57;;;1.80;;
22030;SDS011;11179;52.106;21.024;2023-05-07T06:39:30;3.90;;;1.63;;
22030;SDS011;11179;52.106;21.024;2023-05-07T06:41:56;4.83;;;2.13;;
22030;SDS011;11179;52.106;21.024;2023-05-07T06:44:22;5.03;;;2.60;;
22030;SDS011;11179;52.106;21.024;2023-05-07T06:46:47;5.53;;;2.23;;
22030;SDS011;11179;52.106;21.024;2023-05-07T06:49:15;4.90;;;2.63;;
22030;SDS011;11179;52.106;21.024;2023-05-07T06:51:43;5.90;;;2.77;;
22030;SDS011;11179;52.106;21.024;2023-05-07T06:54:08;4.87;;;2.33;;
22030;SDS011;11179;52.106;21.024;2023-05-07T06:56:34;4.17;;;1.90;;
22030;SDS011;11179;52.106;21.024;2023-05-07T06:59:00;5.43;;;2.40;;
22030;SDS011;11179;52.106;21.024;2023-05-07T07:01:26;6.30;;;1.83;;
22030;SDS011;11179;52.106;21.024;2023-05-07T07:03:51;4.43;;;2.07;;
22030;SDS011;11179;52.106;21.024;2023-05-07T07:06:17;3.97;;;1.70;;
22030;SDS011;11179;52.106;21.024;2023-05-07T07:08:42;3.87;;;1.80;;
22030;SDS011;11179;52.106;21.024;2023-05-07T07:11:08;4.10;;;1.90;;
22030;SDS011;11179;52.106;21.024;2023-05-07T07:13:35;4.60;;;1.93;;
22030;SDS011;11179;52.106;21.024;2023-05-07T07:16:00;4.57;;;1.97;;
22030;SDS011;11179;52.106;21.024;2023-05-07T07:18:25;4.73;;;2.60;;
22030;SDS011;11179;52.106;21.024;2023-05-07T07:20:51;5.90;;;1.93;;
22030;SDS011;11179;52.106;21.024;2023-05-07T07:23:16;5.13;;;2.00;;
22030;SDS011;11179;52.106;21.024;2023-05-07T07:25:41;5.13;;;2.50;;
22030;SDS011;11179;52.106;21.024;2023-05-07T07:28:07;5.20;;;2.40;;
22030;SDS011;11179;52.106;21.024;2023-05-07T07:30:32;4.60;;;1.97;;
22030;SDS011;11179;52.106;21.024;2023-05-07T07:32:58;4.40;;;1.90;;
22030;SDS011;11179;52.106;21.024;2023-05-07T07:35:28;4.30;;;1.80;;
22030;SDS011;11179;52.106;21.024;2023-05-07T07:37:56;5.00;;;2.13;;
22030;SDS011;11179;52.106;21.024;2023-05-07T07:40:22;5.13;;;2.20;;
22030;SDS011;11179;52.106;21.024;2023-05-07T07:42:48;5.87;;;1.67;;
22030;SDS011;11179;52.106;21.024;2023-05-07T07:45:13;4.67;;;2.10;;
22030;SDS011;11179;52.106;21.024;2023-05-07T07:47:39;3.90;;;1.93;;
22030;SDS011;11179;52.106;21.024;2023-05-07T07:50:05;8.20;;;4.33;;
22030;SDS011;11179;52.106;21.024;2023-05-07T07:52:31;3.77;;;2.10;;
22030;SDS011;11179;52.106;21.024;2023-05-07T07:54:57;5.67;;;2.80;;
22030;SDS011;11179;52.106;21.024;2023-05-07T07:57:22;5.00;;;1.97;;
22030;SDS011;11179;52.106;21.024;2023-05-07T07:59:48;6.27;;;1.87;;
22030;SDS011;11179;52.106;21.024;2023-05-07T08:02:14;6.30;;;3.23;;
22030;SDS011;11179;52.106;21.024;2023-05-07T08:04:39;4.27;;;1.93;;
22030;SDS011;11179;52.106;21.024;2023-05-07T08:07:05;6.80;;;2.50;;
22030;SDS011;11179;52.106;21.024;2023-05-07T08:09:30;4.70;;;2.20;;
22030;SDS011;11179;52.106;21.024;2023-05-07T08:11:56;4.83;;;2.10;;
22030;SDS011;11179;52.106;21.024;2023-05-07T08:14:21;6.30;;;2.70;;
22030;SDS011;11179;52.106;21.024;2023-05-07T08:16:46;8.53;;;2.03;;
22030;SDS011;11179;52.106;21.024;2023-05-07T08:19:12;6.63;;;2.70;;
22030;SDS011;11179;52.106;21.024;2023-05-07T08:21:38;5.30;;;1.90;;
22030;SDS011;11179;52.106;21.024;2023-05-07T08:24:04;7.03;;;2.80;;
22030;SDS011;11179;52.106;21.024;2023-05-07T08:26:30;5.97;;;3.30;;
22030;SDS011;11179;52.106;21.024;2023-05-07T08:28:55;7.27;;;2.20;;
22030;SDS011;11179;52.106;21.024;2023-05-07T08:31:21;8.20;;;2.40;;
22030;SDS011;11179;52.106;21.024;2023-05-07T08:33:46;5.90;;;2.60;;
22030;SDS011;11179;52.106;21.024;2023-05-07T08:36:11;5.27;;;2.10;;
22030;SDS011;11179;52.106;21.024;2023-05-07T08:38:37;5.40;;;2.40;;
22030;SDS011;11179;52.106;21.024;2023-05-07T08:41:02;6.90;;;2.43;;
22030;SDS011;11179;52.106;21.024;2023-05-07T08:43:28;5.80;;;2.50;;
22030;SDS011;11179;52.106;21.024;2023-05-07T08:45:56;6.90;;;2.50;;
22030;SDS011;11179;52.106;21.024;2023-05-07T08:48:25;8.40;;;2.70;;
22030;SDS011;11179;52.106;21.024;2023-05-07T08:50:54;5.07;;;2.20;;
22030;SDS011;11179;52.106;21.024;2023-05-07T08:53:20;4.70;;;2.10;;
22030;SDS011;11179;52.106;21.024;2023-05-07T08:55:45;4.10;;;2.00;;
22030;SDS011;11179;52.106;21.024;2023-05-07T08:58:12;7.87;;;3.43;;
22030;SDS011;11179;52.106;21.024;2023-05-07T09:00:38;6.30;;;3.37;;
22030;SDS011;11179;52.106;21.024;2023-05-07T09:03:05;8.23;;;3.30;;
22030;SDS011;11179;52.106;21.024;2023-05-07T09:05:30;12.23;;;5.83;;
22030;SDS011;11179;52.106;21.024;2023-05-07T09:07:58;7.13;;;2.60;;
22030;SDS011;11179;52.106;21.024;2023-05-07T09:10:25;8.20;;;4.40;;
22030;SDS011;11179;52.106;21.024;2023-05-07T09:12:51;8.60;;;3.80;;
22030;SDS011;11179;52.106;21.024;2023-05-07T09:15:16;5.80;;;2.47;;
22030;SDS011;11179;52.106;21.024;2023-05-07T09:17:43;9.93;;;3.97;;
22030;SDS011;11179;52.106;21.024;2023-05-07T09:20:09;12.17;;;5.77;;
22030;SDS011;11179;52.106;21.024;2023-05-07T09:22:38;11.30;;;3.03;;
22030;SDS011;11179;52.106;21.024;2023-05-07T09:25:04;8.50;;;2.97;;
22030;SDS011;11179;52.106;21.024;2023-05-07T09:27:34;7.10;;;3.37;;
22030;SDS011;11179;52.106;21.024;2023-05-07T09:29:59;5.80;;;2.80;;
22030;SDS011;11179;52.106;21.024;2023-05-07T09:32:28;7.60;;;3.00;;
22030;SDS011;11179;52.106;21.024;2023-05-07T09:34:55;8.33;;;2.93;;
22030;SDS011;11179;52.106;21.024;2023-05-07T09:37:21;4.93;;;2.20;;
22030;SDS011;11179;52.106;21.024;2023-05-07T09:39:47;5.20;;;2.40;;
22030;SDS011;11179;52.106;21.024;2023-05-07T09:42:13;9.23;;;3.10;;
22030;SDS011;11179;52.106;21.024;2023-05-07T09:44:45;8.87;;;3.00;;
22030;SDS011;11179;52.106;21.024;2023-05-07T09:47:10;7.10;;;2.63;;
22030;SDS011;11179;52.106;21.024;2023-05-07T09:49:41;4.50;;;2.40;;
22030;SDS011;11179;52.106;21.024;2023-05-07T09:52:09;3.83;;;1.60;;
22030;SDS011;11179;52.106;21.024;2023-05-07T09:54:35;3.73;;;1.77;;
22030;SDS011;11179;52.106;21.024;2023-05-07T09:57:03;5.30;;;2.40;;
22030;SDS011;11179;52.106;21.024;2023-05-07T09:59:29;11.07;;;2.53;;
22030;SDS011;11179;52.106;21.024;2023-05-07T10:01:57;7.90;;;2.60;;
22030;SDS011;11179;52.106;21.024;2023-05-07T10:04:24;4.53;;;2.10;;
22030;SDS011;11179;52.106;21.024;2023-05-07T10:06:51;7.27;;;2.80;;
22030;SDS011;11179;52.106;21.024;2023-05-07T10:09:18;4.30;;;2.20;;
22030;SDS011;11179;52.106;21.024;2023-05-07T10:11:45;4.70;;;2.40;;
22030;SDS011;11179;52.106;21.024;2023-05-07T10:14:19;6.60;;;3.00;;
22030;SDS011;11179;52.106;21.024;2023-05-07T10:16:46;4.87;;;1.40;;
22030;SDS011;11179;52.106;21.024;2023-05-07T10:19:12;6.70;;;2.33;;
22030;SDS011;11179;52.106;21.024;2023-05-07T10:21:41;4.70;;;2.43;;
22030;SDS011;11179;52.106;21.024;2023-05-07T10:24:31;10.23;;;5.33;;
22030;SDS011;11179;52.106;21.024;2023-05-07T10:27:01;7.70;;;3.93;;
22030;SDS011;11179;52.106;21.024;2023-05-07T10:29:35;12.87;;;3.70;;
22030;SDS011;11179;52.106;21.024;2023-05-07T10:32:19;8.70;;;2.80;;
22030;SDS011;11179;52.106;21.024;2023-05-07T10:34:58;7.10;;;3.40;;
22030;SDS011;11179;52.106;21.024;2023-05-07T10:40:57;6.17;;;3.20;;
22030;SDS011;11179;52.106;21.024;2023-05-07T10:43:23;5.60;;;3.00;;
22030;SDS011;11179;52.106;21.024;2023-05-07T10:46:08;6.97;;;2.17;;
22030;SDS011;11179;52.106;21.024;2023-05-07T10:51:25;6.90;;;2.90;;
22030;SDS011;11179;52.106;21.024;2023-05-07T10:56:35;5.40;;;2.70;;
22030;SDS011;11179;52.106;21.024;2023-05-07T11:02:00;6.27;;;2.50;;
22030;SDS011;11179;52.106;21.024;2023-05-07T11:04:31;10.40;;;3.20;;
22030;SDS011;11179;52.106;21.024;2023-05-07T11:13:03;7.87;;;2.77;;
22030;SDS011;11179;52.106;21.024;2023-05-07T11:15:06;5.43;;;2.90;;
22030;SDS011;11179;52.106;21.024;2023-05-07T11:17:33;5.00;;;2.30;;
22030;SDS011;11179;52.106;21.024;2023-05-07T11:19:59;7.77;;;2.67;;
22030;SDS011;11179;52.106;21.024;2023-05-07T11:25:04;7.00;;;3.00;;
22030;SDS011;11179;52.106;21.024;2023-05-07T11:27:31;4.73;;;2.53;;
22030;SDS011;11179;52.106;21.024;2023-05-07T11:29:57;10.63;;;2.50;;
22030;SDS011;11179;52.106;21.024;2023-05-07T11:32:23;6.67;;;2.60;;
22030;SDS011;11179;52.106;21.024;2023-05-07T11:34:56;4.93;;;1.83;;
22030;SDS011;11179;52.106;21.024;2023-05-07T11:37:24;7.27;;;2.07;;
22030;SDS011;11179;52.106;21.024;2023-05-07T11:39:51;5.07;;;2.30;;
22030;SDS011;11179;52.106;21.024;2023-05-07T11:42:29;5.83;;;2.57;;
22030;SDS011;11179;52.106;21.024;2023-05-07T11:44:54;5.47;;;2.23;;
22030;SDS011;11179;52.106;21.024;2023-05-07T11:47:20;8.37;;;2.70;;
22030;SDS011;11179;52.106;21.024;2023-05-07T11:49:47;5.27;;;2.77;;
22030;SDS011;11179;52.106;21.024;2023-05-07T11:52:13;6.97;;;2.50;;
22030;SDS011;11179;52.106;21.024;2023-05-07T11:54:39;6.17;;;2.57;;
22030;SDS011;11179;52.106;21.024;2023-05-07T11:57:04;7.70;;;2.47;;
22030;SDS011;11179;52.106;21.024;2023-05-07T11:59:37;9.40;;;2.60;;
22030;SDS011;11179;52.106;21.024;2023-05-07T12:02:05;6.27;;;2.60;;
22030;SDS011;11179;52.106;21.024;2023-05-07T12:04:31;7.77;;;2.30;;
22030;SDS011;11179;52.106;21.024;2023-05-07T12:06:56;7.43;;;2.23;;
22030;SDS011;11179;52.106;21.024;2023-05-07T12:09:21;4.37;;;2.00;;
22030;SDS011;11179;52.106;21.024;2023-05-07T12:11:47;4.37;;;2.20;;
22030;SDS011;11179;52.106;21.024;2023-05-07T12:14:14;5.20;;;2.50;;
22030;SDS011;11179;52.106;21.024;2023-05-07T12:16:41;5.70;;;2.90;;
22030;SDS011;11179;52.106;21.024;2023-05-07T12:19:07;4.60;;;1.97;;
22030;SDS011;11179;52.106;21.024;2023-05-07T12:21:34;8.40;;;2.53;;
22030;SDS011;11179;52.106;21.024;2023-05-07T12:24:00;4.33;;;2.20;;
22030;SDS011;11179;52.106;21.024;2023-05-07T12:26:26;5.80;;;2.37;;
22030;SDS011;11179;52.106;21.024;2023-05-07T12:28:51;12.70;;;2.77;;
22030;SDS011;11179;52.106;21.024;2023-05-07T12:31:17;4.97;;;1.90;;
22030;SDS011;11179;52.106;21.024;2023-05-07T12:33:42;6.00;;;2.40;;
22030;SDS011;11179;52.106;21.024;2023-05-07T12:36:08;4.10;;;2.03;;
22030;SDS011;11179;52.106;21.024;2023-05-07T12:38:34;5.40;;;2.60;;
22030;SDS011;11179;52.106;21.024;2023-05-07T12:41:01;5.37;;;2.50;;
22030;SDS011;11179;52.106;21.024;2023-05-07T12:43:28;4.97;;;2.60;;
22030;SDS011;11179;52.106;21.024;2023-05-07T12:45:54;9.43;;;2.30;;
22030;SDS011;11179;52.106;21.024;2023-05-07T12:48:21;5.60;;;2.60;;
22030;SDS011;11179;52.106;21.024;2023-05-07T12:50:50;6.20;;;2.33;;
22030;SDS011;11179;52.106;21.024;2023-05-07T12:53:16;5.43;;;2.40;;
22030;SDS011;11179;52.106;21.024;2023-05-07T12:55:42;11.10;;;2.03;;
22030;SDS011;11179;52.106;21.024;2023-05-07T12:58:30;4.80;;;2.13;;
22030;SDS011;11179;52.106;21.024;2023-05-07T13:00:59;5.50;;;2.10;;
22030;SDS011;11179;52.106;21.024;2023-05-07T13:05:53;5.70;;;2.50;;
22030;SDS011;11179;52.106;21.024;2023-05-07T13:08:24;4.40;;;2.10;;
22030;SDS011;11179;52.106;21.024;2023-05-07T13:10:50;8.73;;;2.23;;
22030;SDS011;11179;52.106;21.024;2023-05-07T13:13:16;5.83;;;1.93;;
22030;SDS011;11179;52.106;21.024;2023-05-07T13:15:41;4.30;;;1.90;;
22030;SDS011;11179;52.106;21.024;2023-05-07T13:18:06;4.67;;;1.67;;
22030;SDS011;11179;52.106;21.024;2023-05-07T13:20:32;6.80;;;2.30;;
22030;SDS011;11179;52.106;21.024;2023-05-07T13:22:57;5.00;;;2.20;;
22030;SDS011;11179;52.106;21.024;2023-05-07T13:25:22;3.80;;;1.83;;
22030;SDS011;11179;52.106;21.024;2023-05-07T13:27:47;4.50;;;2.10;;
22030;SDS011;11179;52.106;21.024;2023-05-07T13:30:13;4.40;;;2.00;;
22030;SDS011;11179;52.106;21.024;2023-05-07T13:32:38;4.37;;;2.27;;
22030;SDS011;11179;52.106;21.024;2023-05-07T13:35:04;11.30;;;2.10;;
22030;SDS011;11179;52.106;21.024;2023-05-07T13:37:29;6.30;;;2.30;;
22030;SDS011;11179;52.106;21.024;2023-05-07T13:39:55;5.17;;;1.90;;
22030;SDS011;11179;52.106;21.024;2023-05-07T13:42:20;6.13;;;2.33;;
22030;SDS011;11179;52.106;21.024;2023-05-07T13:44:45;6.00;;;2.20;;
22030;SDS011;11179;52.106;21.024;2023-05-07T13:47:11;7.33;;;2.80;;
22030;SDS011;11179;52.106;21.024;2023-05-07T13:49:36;4.03;;;1.77;;
22030;SDS011;11179;52.106;21.024;2023-05-07T13:52:02;5.03;;;1.97;;
22030;SDS011;11179;52.106;21.024;2023-05-07T13:54:27;3.87;;;1.60;;
22030;SDS011;11179;52.106;21.024;2023-05-07T13:56:53;4.77;;;2.20;;
22030;SDS011;11179;52.106;21.024;2023-05-07T13:59:18;6.10;;;2.17;;
22030;SDS011;11179;52.106;21.024;2023-05-07T14:01:43;4.13;;;1.90;;
22030;SDS011;11179;52.106;21.024;2023-05-07T14:04:09;9.00;;;2.13;;
22030;SDS011;11179;52.106;21.024;2023-05-07T14:06:34;8.57;;;2.43;;
22030;SDS011;11179;52.106;21.024;2023-05-07T14:09:00;5.93;;;1.70;;
22030;SDS011;11179;52.106;21.024;2023-05-07T14:11:25;8.80;;;3.40;;
22030;SDS011;11179;52.106;21.024;2023-05-07T14:13:50;7.10;;;2.40;;
22030;SDS011;11179;52.106;21.024;2023-05-07T14:16:16;4.80;;;2.07;;
22030;SDS011;11179;52.106;21.024;2023-05-07T14:18:41;4.80;;;1.90;;
22030;SDS011;11179;52.106;21.024;2023-05-07T14:21:06;5.20;;;2.20;;
22030;SDS011;11179;52.106;21.024;2023-05-07T14:23:32;6.93;;;2.17;;
22030;SDS011;11179;52.106;21.024;2023-05-07T14:25:57;4.13;;;1.90;;
22030;SDS011;11179;52.106;21.024;2023-05-07T14:28:23;5.13;;;1.93;;
22030;SDS011;11179;52.106;21.024;2023-05-07T14:30:48;12.57;;;2.30;;
22030;SDS011;11179;52.106;21.024;2023-05-07T14:33:14;4.30;;;2.20;;
22030;SDS011;11179;52.106;21.024;2023-05-07T14:35:39;5.00;;;2.00;;
22030;SDS011;11179;52.106;21.024;2023-05-07T14:38:05;4.30;;;1.70;;
22030;SDS011;11179;52.106;21.024;2023-05-07T14:40:30;5.07;;;2.00;;
22030;SDS011;11179;52.106;21.024;2023-05-07T14:42:55;7.67;;;1.90;;
22030;SDS011;11179;52.106;21.024;2023-05-07T14:45:22;5.80;;;2.37;;
22030;SDS011;11179;52.106;21.024;2023-05-07T14:47:47;5.60;;;2.00;;
22030;SDS011;11179;52.106;21.024;2023-05-07T14:50:13;4.70;;;1.93;;
22030;SDS011;11179;52.106;21.024;2023-05-07T14:52:38;3.77;;;1.60;;
22030;SDS011;11179;52.106;21.024;2023-05-07T14:55:04;3.37;;;1.53;;
22030;SDS011;11179;52.106;21.024;2023-05-07T14:57:30;5.30;;;2.30;;
22030;SDS011;11179;52.106;21.024;2023-05-07T14:59:57;4.93;;;1.40;;
22030;SDS011;11179;52.106;21.024;2023-05-07T15:02:23;4.73;;;1.70;;